San Leandro, California
Current Conditions -  °F | °C
As of 3:53 AM on Monday 26 Jan 2015 (Local Time) from KOAK Reporting Station
Broken Clouds Broken Clouds  
Wind Chill: 41°   Ceiling: 20000
Heat Index: 41°   Visibility: 10mi
Dew Point: 38°   Wind: 3mph
Humidity: 89%   Direction: 60°ENE
Pressure: 30.03"   Gusts: NA
Location:  37.73°N, 122.15°W
Report Text: KOAK 261153Z 06003KT 10SM BKN200 05/03 A3003 RMK AO2 SLP166 T00500033 10100 20050 58007
Loading
Personal Weather Stations






























Interactive Weather Map New forecast layout! Learn more

10-Day Weather Forecast

Advertisements
Track Severe Weather on mobile